sensor_id;sensor_type;location;lat;lon;timestamp;pressure;altitude;pressure_sealevel;temperature;humidity
78373;BME280;67656;52.074;4.758;2023-05-07T00:04:45;101699.25;;;12.62;100.00
78373;BME280;67656;52.074;4.758;2023-05-07T00:09:46;101702.72;;;12.64;100.00
78373;BME280;67656;52.074;4.758;2023-05-07T00:14:46;101712.38;;;12.67;100.00
78373;BME280;67656;52.074;4.758;2023-05-07T00:19:46;101715.88;;;12.69;100.00
78373;BME280;67656;52.074;4.758;2023-05-07T00:24:47;101712.31;;;12.70;100.00
78373;BME280;67656;52.074;4.758;2023-05-07T00:29:47;101719.28;;;12.74;100.00
78373;BME280;67656;52.074;4.758;2023-05-07T00:34:47;101696.53;;;12.65;100.00
78373;BME280;67656;52.074;4.758;2023-05-07T00:39:48;101709.78;;;12.65;100.00
78373;BME280;67656;52.074;4.758;2023-05-07T00:44:48;101709.81;;;12.64;100.00
78373;BME280;67656;52.074;4.758;2023-05-07T00:50:06;101694.78;;;12.66;100.00
78373;BME280;67656;52.074;4.758;2023-05-07T00:55:07;101696.50;;;12.67;100.00
78373;BME280;67656;52.074;4.758;2023-05-07T01:00:09;101692.97;;;12.66;100.00
78373;BME280;67656;52.074;4.758;2023-05-07T01:05:11;101696.44;;;12.70;100.00
78373;BME280;67656;52.074;4.758;2023-05-07T01:10:12;101692.88;;;12.71;100.00
78373;BME280;67656;52.074;4.758;2023-05-07T01:15:13;101686.66;;;12.72;100.00
78373;BME280;67656;52.074;4.758;2023-05-07T01:20:14;101687.56;;;12.71;100.00
78373;BME280;67656;52.074;4.758;2023-05-07T01:25:16;101686.53;;;12.78;100.00
78373;BME280;67656;52.074;4.758;2023-05-07T01:30:21;101681.13;;;12.83;100.00
78373;BME280;67656;52.074;4.758;2023-05-07T01:35:26;101682.94;;;12.81;100.00
78373;BME280;67656;52.074;4.758;2023-05-07T01:40:27;101675.72;;;12.86;100.00
78373;BME280;67656;52.074;4.758;2023-05-07T01:45:30;101684.63;;;12.85;100.00
78373;BME280;67656;52.074;4.758;2023-05-07T01:50:33;101677.47;;;12.87;100.00
78373;BME280;67656;52.074;4.758;2023-05-07T01:55:34;101671.47;;;12.80;100.00
78373;BME280;67656;52.074;4.758;2023-05-07T02:00:35;101673.31;;;12.77;100.00
78373;BME280;67656;52.074;4.758;2023-05-07T02:05:35;101669.03;;;12.72;100.00
78373;BME280;67656;52.074;4.758;2023-05-07T02:10:42;101667.34;;;12.68;100.00
78373;BME280;67656;52.074;4.758;2023-05-07T02:15:44;101666.56;;;12.65;100.00
78373;BME280;67656;52.074;4.758;2023-05-07T02:20:44;101668.28;;;12.66;100.00
78373;BME280;67656;52.074;4.758;2023-05-07T02:25:44;101673.50;;;12.69;100.00
78373;BME280;67656;52.074;4.758;2023-05-07T02:30:45;101680.59;;;12.67;100.00
78373;BME280;67656;52.074;4.758;2023-05-07T02:35:45;101682.50;;;12.62;100.00
78373;BME280;67656;52.074;4.758;2023-05-07T02:40:48;101692.31;;;12.56;100.00
78373;BME280;67656;52.074;4.758;2023-05-07T02:46:00;101689.75;;;12.53;100.00
78373;BME280;67656;52.074;4.758;2023-05-07T02:51:02;101686.28;;;12.51;100.00
78373;BME280;67656;52.074;4.758;2023-05-07T02:56:04;101689.75;;;12.53;100.00
78373;BME280;67656;52.074;4.758;2023-05-07T03:01:05;101683.56;;;12.53;100.00
78373;BME280;67656;52.074;4.758;2023-05-07T03:06:26;101684.34;;;12.58;100.00
78373;BME280;67656;52.074;4.758;2023-05-07T03:11:26;101680.69;;;12.64;100.00
78373;BME280;67656;52.074;4.758;2023-05-07T03:16:26;101693.03;;;12.65;100.00
78373;BME280;67656;52.074;4.758;2023-05-07T03:21:27;101678.06;;;12.62;100.00
78373;BME280;67656;52.074;4.758;2023-05-07T03:26:28;101669.25;;;12.62;100.00
78373;BME280;67656;52.074;4.758;2023-05-07T03:31:28;101673.72;;;12.59;100.00
78373;BME280;67656;52.074;4.758;2023-05-07T03:42:11;101671.97;;;12.58;100.00
78373;BME280;67656;52.074;4.758;2023-05-07T03:47:22;101674.59;;;12.60;100.00
78373;BME280;67656;52.074;4.758;2023-05-07T03:52:22;101679.00;;;12.59;100.00
78373;BME280;67656;52.074;4.758;2023-05-07T03:57:51;101683.44;;;12.59;100.00
78373;BME280;67656;52.074;4.758;2023-05-07T04:02:59;101693.16;;;12.58;100.00
78373;BME280;67656;52.074;4.758;2023-05-07T04:08:03;101697.56;;;12.59;100.00
78373;BME280;67656;52.074;4.758;2023-05-07T04:13:10;101700.13;;;12.63;100.00
78373;BME280;67656;52.074;4.758;2023-05-07T04:18:11;101698.28;;;12.66;100.00
78373;BME280;67656;52.074;4.758;2023-05-07T04:23:14;101698.22;;;12.69;100.00
78373;BME280;67656;52.074;4.758;2023-05-07T04:28:15;101699.97;;;12.69;100.00
78373;BME280;67656;52.074;4.758;2023-05-07T04:33:16;101699.91;;;12.72;100.00
78373;BME280;67656;52.074;4.758;2023-05-07T04:38:17;101695.53;;;12.71;100.00
78373;BME280;67656;52.074;4.758;2023-05-07T04:43:18;101698.09;;;12.74;100.00
78373;BME280;67656;52.074;4.758;2023-05-07T04:48:23;101697.94;;;12.80;100.00
78373;BME280;67656;52.074;4.758;2023-05-07T04:53:25;101694.41;;;12.81;100.00
78373;BME280;67656;52.074;4.758;2023-05-07T04:58:27;101697.81;;;12.86;100.00
78373;BME280;67656;52.074;4.758;2023-05-07T05:03:28;101698.66;;;12.87;100.00
78373;BME280;67656;52.074;4.758;2023-05-07T05:08:29;101697.75;;;12.89;100.00
78373;BME280;67656;52.074;4.758;2023-05-07T05:13:31;101699.19;;;13.03;100.00
78373;BME280;67656;52.074;4.758;2023-05-07T05:18:32;101704.31;;;13.09;100.00
78373;BME280;67656;52.074;4.758;2023-05-07T05:23:33;101703.22;;;13.18;100.00
78373;BME280;67656;52.074;4.758;2023-05-07T05:28:33;101710.09;;;13.25;100.00
78373;BME280;67656;52.074;4.758;2023-05-07T05:33:34;101715.84;;;13.44;100.00
78373;BME280;67656;52.074;4.758;2023-05-07T05:38:37;101715.69;;;13.50;100.00
78373;BME280;67656;52.074;4.758;2023-05-07T05:43:38;101728.56;;;13.66;100.00
78373;BME280;67656;52.074;4.758;2023-05-07T05:48:38;101735.44;;;13.73;100.00
78373;BME280;67656;52.074;4.758;2023-05-07T05:53:40;101724.69;;;13.78;100.00
78373;BME280;67656;52.074;4.758;2023-05-07T05:58:40;101736.97;;;13.82;100.00
78373;BME280;67656;52.074;4.758;2023-05-07T06:03:42;101748.28;;;13.89;100.00
78373;BME280;67656;52.074;4.758;2023-05-07T06:08:47;101748.22;;;13.92;100.00
78373;BME280;67656;52.074;4.758;2023-05-07T06:13:52;101750.75;;;13.95;100.00
78373;BME280;67656;52.074;4.758;2023-05-07T06:18:52;101761.28;;;13.98;100.00
78373;BME280;67656;52.074;4.758;2023-05-07T06:23:53;101758.28;;;14.10;100.00
78373;BME280;67656;52.074;4.758;2023-05-07T06:28:54;101754.66;;;14.15;100.00
78373;BME280;67656;52.074;4.758;2023-05-07T06:33:54;101761.44;;;14.25;100.00
78373;BME280;67656;52.074;4.758;2023-05-07T06:38:55;101761.59;;;14.19;100.00
78373;BME280;67656;52.074;4.758;2023-05-07T06:43:55;101763.94;;;14.29;100.00
78373;BME280;67656;52.074;4.758;2023-05-07T06:49:12;101753.78;;;14.44;100.00
78373;BME280;67656;52.074;4.758;2023-05-07T06:54:13;101761.16;;;14.34;100.00
78373;BME280;67656;52.074;4.758;2023-05-07T06:59:15;101755.56;;;14.43;100.00
78373;BME280;67656;52.074;4.758;2023-05-07T07:04:15;101747.16;;;14.29;100.00
78373;BME280;67656;52.074;4.758;2023-05-07T07:09:19;101750.53;;;14.34;100.00
78373;BME280;67656;52.074;4.758;2023-05-07T07:14:19;101764.34;;;14.46;100.00
78373;BME280;67656;52.074;4.758;2023-05-07T07:19:24;101755.13;;;14.59;100.00
78373;BME280;67656;52.074;4.758;2023-05-07T07:24:28;101762.75;;;14.71;100.00
78373;BME280;67656;52.074;4.758;2023-05-07T07:29:32;101755.78;;;14.66;100.00
78373;BME280;67656;52.074;4.758;2023-05-07T07:34:32;101758.06;;;14.80;100.00
78373;BME280;67656;52.074;4.758;2023-05-07T07:39:35;101759.91;;;14.78;100.00
78373;BME280;67656;52.074;4.758;2023-05-07T07:44:36;101756.13;;;14.55;100.00
78373;BME280;67656;52.074;4.758;2023-05-07T07:49:41;101753.56;;;14.52;100.00
78373;BME280;67656;52.074;4.758;2023-05-07T07:54:51;101756.78;;;14.63;100.00
78373;BME280;67656;52.074;4.758;2023-05-07T07:59:59;101761.31;;;15.18;100.00
78373;BME280;67656;52.074;4.758;2023-05-07T08:05:03;101755.16;;;15.95;100.00
78373;BME280;67656;52.074;4.758;2023-05-07T08:10:06;101745.47;;;17.10;100.00
78373;BME280;67656;52.074;4.758;2023-05-07T08:15:08;101726.06;;;18.30;100.00
78373;BME280;67656;52.074;4.758;2023-05-07T08:20:11;101715.72;;;18.22;100.00
78373;BME280;67656;52.074;4.758;2023-05-07T08:25:12;101712.44;;;19.10;100.00
78373;BME280;67656;52.074;4.758;2023-05-07T08:36:12;101729.72;;;19.39;100.00
78373;BME280;67656;52.074;4.758;2023-05-07T08:41:15;101726.97;;;20.09;100.00
78373;BME280;67656;52.074;4.758;2023-05-07T08:46:20;101731.91;;;20.17;100.00
78373;BME280;67656;52.074;4.758;2023-05-07T08:51:22;101733.00;;;18.90;100.00
78373;BME280;67656;52.074;4.758;2023-05-07T08:56:23;101741.16;;;19.06;100.00
78373;BME280;67656;52.074;4.758;2023-05-07T09:01:26;101745.72;;;19.04;100.00
78373;BME280;67656;52.074;4.758;2023-05-07T09:06:27;101748.22;;;19.44;100.00
78373;BME280;67656;52.074;4.758;2023-05-07T09:11:28;101736.56;;;19.45;100.00
78373;BME280;67656;52.074;4.758;2023-05-07T09:16:31;101744.91;;;19.39;100.00
78373;BME280;67656;52.074;4.758;2023-05-07T09:21:33;101742.44;;;19.69;100.00
78373;BME280;67656;52.074;4.758;2023-05-07T09:26:37;101750.66;;;19.48;100.00
78373;BME280;67656;52.074;4.758;2023-05-07T09:31:39;101746.38;;;20.31;100.00
78373;BME280;67656;52.074;4.758;2023-05-07T09:36:47;101750.69;;;20.33;100.00
78373;BME280;67656;52.074;4.758;2023-05-07T09:41:51;101750.41;;;20.06;100.00
78373;BME280;67656;52.074;4.758;2023-05-07T09:47:07;101748.22;;;20.94;100.00
78373;BME280;67656;52.074;4.758;2023-05-07T09:52:19;101754.59;;;20.28;100.00
78373;BME280;67656;52.074;4.758;2023-05-07T09:57:25;101749.09;;;20.13;100.00
78373;BME280;67656;52.074;4.758;2023-05-07T10:02:32;101747.00;;;20.68;100.00
78373;BME280;67656;52.074;4.758;2023-05-07T10:07:35;101740.94;;;20.48;100.00
78373;BME280;67656;52.074;4.758;2023-05-07T10:12:41;101751.13;;;19.39;100.00
78373;BME280;67656;52.074;4.758;2023-05-07T10:17:48;101753.72;;;19.93;100.00
78373;BME280;67656;52.074;4.758;2023-05-07T10:22:49;101757.81;;;20.01;100.00
78373;BME280;67656;52.074;4.758;2023-05-07T10:28:00;101761.28;;;19.68;100.00
78373;BME280;67656;52.074;4.758;2023-05-07T10:33:03;101756.34;;;20.11;100.00
78373;BME280;67656;52.074;4.758;2023-05-07T10:38:05;101760.09;;;21.06;100.00
78373;BME280;67656;52.074;4.758;2023-05-07T10:43:09;101739.31;;;21.85;100.00
78373;BME280;67656;52.074;4.758;2023-05-07T10:48:16;101751.03;;;21.54;100.00
78373;BME280;67656;52.074;4.758;2023-05-07T10:53:25;101750.84;;;22.02;100.00
78373;BME280;67656;52.074;4.758;2023-05-07T10:58:37;101770.66;;;20.77;100.00
78373;BME280;67656;52.074;4.758;2023-05-07T11:04:13;101772.19;;;21.13;100.00
78373;BME280;67656;52.074;4.758;2023-05-07T11:09:15;101754.97;;;21.93;100.00
78373;BME280;67656;52.074;4.758;2023-05-07T11:19:49;101758.31;;;22.96;100.00
78373;BME280;67656;52.074;4.758;2023-05-07T11:24:52;101760.78;;;22.72;100.00
78373;BME280;67656;52.074;4.758;2023-05-07T11:29:52;101753.81;;;22.26;100.00
78373;BME280;67656;52.074;4.758;2023-05-07T11:34:54;101759.09;;;22.28;100.00
78373;BME280;67656;52.074;4.758;2023-05-07T11:40:06;101758.34;;;22.54;100.00
78373;BME280;67656;52.074;4.758;2023-05-07T11:45:07;101759.09;;;22.13;100.00
78373;BME280;67656;52.074;4.758;2023-05-07T11:50:08;101764.97;;;22.20;100.00
78373;BME280;67656;52.074;4.758;2023-05-07T11:55:08;101766.00;;;23.30;100.00
78373;BME280;67656;52.074;4.758;2023-05-07T12:00:09;101765.63;;;22.94;100.00
78373;BME280;67656;52.074;4.758;2023-05-07T12:05:16;101769.16;;;22.67;100.00
78373;BME280;67656;52.074;4.758;2023-05-07T12:10:16;101772.47;;;22.44;100.00
78373;BME280;67656;52.074;4.758;2023-05-07T12:15:17;101748.53;;;23.23;100.00
78373;BME280;67656;52.074;4.758;2023-05-07T12:20:18;101765.94;;;22.48;100.00
78373;BME280;67656;52.074;4.758;2023-05-07T12:25:19;101761.25;;;22.79;100.00
78373;BME280;67656;52.074;4.758;2023-05-07T12:30:20;101767.53;;;22.21;100.00
78373;BME280;67656;52.074;4.758;2023-05-07T12:35:40;101764.56;;;21.83;100.00
78373;BME280;67656;52.074;4.758;2023-05-07T12:40:43;101772.16;;;20.49;100.00
78373;BME280;67656;52.074;4.758;2023-05-07T12:45:43;101779.78;;;20.73;100.00
78373;BME280;67656;52.074;4.758;2023-05-07T12:50:44;101781.34;;;20.45;100.00
78373;BME280;67656;52.074;4.758;2023-05-07T12:55:46;101781.13;;;19.99;100.00
78373;BME280;67656;52.074;4.758;2023-05-07T13:00:48;101787.31;;;20.50;100.00
78373;BME280;67656;52.074;4.758;2023-05-07T13:05:49;101789.78;;;21.03;100.00
78373;BME280;67656;52.074;4.758;2023-05-07T13:10:49;101794.09;;;21.22;100.00
78373;BME280;67656;52.074;4.758;2023-05-07T13:15:49;101779.34;;;20.49;100.00
78373;BME280;67656;52.074;4.758;2023-05-07T13:20:50;101782.97;;;20.32;100.00
78373;BME280;67656;52.074;4.758;2023-05-07T13:25:50;101791.09;;;19.97;100.00
78373;BME280;67656;52.074;4.758;2023-05-07T13:30:52;101791.28;;;19.92;100.00
78373;BME280;67656;52.074;4.758;2023-05-07T13:35:52;101802.66;;;19.25;100.00
78373;BME280;67656;52.074;4.758;2023-05-07T13:40:53;101821.06;;;18.17;100.00
78373;BME280;67656;52.074;4.758;2023-05-07T13:45:53;101835.19;;;16.65;100.00
78373;BME280;67656;52.074;4.758;2023-05-07T13:50:53;101843.88;;;15.69;100.00
78373;BME280;67656;52.074;4.758;2023-05-07T13:55:54;101875.69;;;14.86;100.00
78373;BME280;67656;52.074;4.758;2023-05-07T14:00:54;101913.97;;;14.46;100.00
78373;BME280;67656;52.074;4.758;2023-05-07T14:05:54;101925.28;;;13.83;100.00
78373;BME280;67656;52.074;4.758;2023-05-07T14:10:55;101935.97;;;13.80;100.00
78373;BME280;67656;52.074;4.758;2023-05-07T14:15:55;101940.84;;;13.63;100.00
78373;BME280;67656;52.074;4.758;2023-05-07T14:20:56;101938.84;;;13.73;100.00
78373;BME280;67656;52.074;4.758;2023-05-07T14:25:56;101953.66;;;13.81;100.00
78373;BME280;67656;52.074;4.758;2023-05-07T14:30:57;101966.59;;;13.95;100.00
78373;BME280;67656;52.074;4.758;2023-05-07T14:35:57;101971.69;;;14.05;100.00
78373;BME280;67656;52.074;4.758;2023-05-07T14:40:57;101967.22;;;14.41;100.00
78373;BME280;67656;52.074;4.758;2023-05-07T14:45:58;101954.47;;;14.54;100.00
78373;BME280;67656;52.074;4.758;2023-05-07T14:50:58;101949.88;;;14.61;100.00
78373;BME280;67656;52.074;4.758;2023-05-07T14:55:58;101936.06;;;14.48;100.00
78373;BME280;67656;52.074;4.758;2023-05-07T15:00:59;101937.44;;;14.63;100.00
78373;BME280;67656;52.074;4.758;2023-05-07T15:05:59;101933.28;;;14.86;100.00
78373;BME280;67656;52.074;4.758;2023-05-07T15:11:00;101939.81;;;15.05;100.00
78373;BME280;67656;52.074;4.758;2023-05-07T15:16:00;101944.28;;;15.33;100.00
78373;BME280;67656;52.074;4.758;2023-05-07T15:21:00;101959.09;;;15.71;100.00
78373;BME280;67656;52.074;4.758;2023-05-07T15:26:01;101953.94;;;16.21;100.00
78373;BME280;67656;52.074;4.758;2023-05-07T15:31:01;101953.75;;;16.27;100.00
78373;BME280;67656;52.074;4.758;2023-05-07T15:36:02;101963.25;;;16.35;100.00
78373;BME280;67656;52.074;4.758;2023-05-07T15:41:02;101953.66;;;16.31;100.00
78373;BME280;67656;52.074;4.758;2023-05-07T15:46:02;101947.75;;;16.21;100.00
78373;BME280;67656;52.074;4.758;2023-05-07T15:51:03;101949.19;;;16.31;100.00
78373;BME280;67656;52.074;4.758;2023-05-07T15:56:03;101947.22;;;16.62;100.00
78373;BME280;67656;52.074;4.758;2023-05-07T16:01:04;101940.25;;;16.57;100.00
78373;BME280;67656;52.074;4.758;2023-05-07T16:06:04;101950.47;;;16.70;100.00
78373;BME280;67656;52.074;4.758;2023-05-07T16:11:05;101942.91;;;16.57;100.00
78373;BME280;67656;52.074;4.758;2023-05-07T16:16:05;101947.03;;;16.68;100.00
78373;BME280;67656;52.074;4.758;2023-05-07T16:21:06;101944.66;;;16.58;100.00
78373;BME280;67656;52.074;4.758;2023-05-07T16:26:06;101943.47;;;16.67;100.00
78373;BME280;67656;52.074;4.758;2023-05-07T16:31:07;101944.41;;;16.41;100.00
78373;BME280;67656;52.074;4.758;2023-05-07T16:36:07;101946.03;;;16.45;100.00
78373;BME280;67656;52.074;4.758;2023-05-07T16:41:08;101948.81;;;16.42;100.00
78373;BME280;67656;52.074;4.758;2023-05-07T16:46:09;101952.66;;;16.58;100.00
78373;BME280;67656;52.074;4.758;2023-05-07T16:51:09;101946.31;;;16.63;100.00
78373;BME280;67656;52.074;4.758;2023-05-07T16:56:09;101938.38;;;16.61;100.00
78373;BME280;67656;52.074;4.758;2023-05-07T17:01:10;101933.09;;;16.59;100.00
78373;BME280;67656;52.074;4.758;2023-05-07T17:06:10;101937.03;;;16.73;100.00
78373;BME280;67656;52.074;4.758;2023-05-07T17:11:10;101934.94;;;16.57;100.00
78373;BME280;67656;52.074;4.758;2023-05-07T17:16:11;101941.59;;;16.46;100.00
78373;BME280;67656;52.074;4.758;2023-05-07T17:21:11;101940.69;;;16.45;100.00
78373;BME280;67656;52.074;4.758;2023-05-07T17:26:12;101947.66;;;16.49;100.00
78373;BME280;67656;52.074;4.758;2023-05-07T17:31:13;101945.91;;;16.48;100.00
78373;BME280;67656;52.074;4.758;2023-05-07T17:36:13;101945.31;;;16.40;100.00
78373;BME280;67656;52.074;4.758;2023-05-07T17:41:14;101944.50;;;16.38;100.00
78373;BME280;67656;52.074;4.758;2023-05-07T17:46:14;101964.59;;;16.21;100.00
78373;BME280;67656;52.074;4.758;2023-05-07T17:51:14;101976.31;;;16.16;100.00
78373;BME280;67656;52.074;4.758;2023-05-07T17:56:15;101976.03;;;15.98;100.00
78373;BME280;67656;52.074;4.758;2023-05-07T18:01:15;101985.13;;;15.91;100.00
78373;BME280;67656;52.074;4.758;2023-05-07T18:06:15;101991.69;;;15.79;100.00
78373;BME280;67656;52.074;4.758;2023-05-07T18:11:16;102006.75;;;15.80;100.00
78373;BME280;67656;52.074;4.758;2023-05-07T18:16:19;102009.50;;;15.77;100.00
78373;BME280;67656;52.074;4.758;2023-05-07T18:21:19;102000.91;;;15.67;100.00
78373;BME280;67656;52.074;4.758;2023-05-07T18:26:20;102016.03;;;15.66;100.00
78373;BME280;67656;52.074;4.758;2023-05-07T18:31:20;102018.03;;;15.58;100.00
78373;BME280;67656;52.074;4.758;2023-05-07T18:36:20;102025.31;;;15.53;100.00
78373;BME280;67656;52.074;4.758;2023-05-07T18:41:21;102025.47;;;15.47;100.00
78373;BME280;67656;52.074;4.758;2023-05-07T18:46:21;102014.13;;;15.40;100.00
78373;BME280;67656;52.074;4.758;2023-05-07T18:51:21;102028.56;;;15.31;100.00
78373;BME280;67656;52.074;4.758;2023-05-07T18:56:22;102035.00;;;15.24;100.00
78373;BME280;67656;52.074;4.758;2023-05-07T19:01:22;102037.78;;;15.19;100.00
78373;BME280;67656;52.074;4.758;2023-05-07T19:06:22;102036.13;;;15.15;100.00
78373;BME280;67656;52.074;4.758;2023-05-07T19:11:23;102033.66;;;15.09;100.00
78373;BME280;67656;52.074;4.758;2023-05-07T19:16:23;102039.19;;;15.01;100.00
78373;BME280;67656;52.074;4.758;2023-05-07T19:21:24;102039.34;;;14.95;100.00
78373;BME280;67656;52.074;4.758;2023-05-07T19:26:24;102039.47;;;14.90;100.00
78373;BME280;67656;52.074;4.758;2023-05-07T19:31:25;102053.72;;;14.88;100.00
78373;BME280;67656;52.074;4.758;2023-05-07T19:36:26;102062.97;;;14.73;100.00
78373;BME280;67656;52.074;4.758;2023-05-07T19:41:27;102072.78;;;14.69;100.00
78373;BME280;67656;52.074;4.758;2023-05-07T19:46:27;102077.31;;;14.64;100.00
78373;BME280;67656;52.074;4.758;2023-05-07T19:51:28;102080.97;;;14.60;100.00
78373;BME280;67656;52.074;4.758;2023-05-07T19:56:28;102081.94;;;14.56;100.00
78373;BME280;67656;52.074;4.758;2023-05-07T20:01:28;102099.69;;;14.55;100.00
78373;BME280;67656;52.074;4.758;2023-05-07T20:06:29;102113.88;;;14.54;100.00
78373;BME280;67656;52.074;4.758;2023-05-07T20:11:29;102111.34;;;14.50;100.00
78373;BME280;67656;52.074;4.758;2023-05-07T20:16:30;102116.66;;;14.50;100.00
78373;BME280;67656;52.074;4.758;2023-05-07T20:21:30;61865.56;;;-147.98;100.00
78373;BME280;67656;52.074;4.758;2023-05-07T20:26:31;61865.56;;;-147.98;100.00
78373;BME280;67656;52.074;4.758;2023-05-07T20:31:31;61865.56;;;-147.98;100.00
78373;BME280;67656;52.074;4.758;2023-05-07T20:36:32;61865.56;;;-147.98;100.00
78373;BME280;67656;52.074;4.758;2023-05-07T20:41:32;102125.97;;;14.30;100.00
78373;BME280;67656;52.074;4.758;2023-05-07T20:46:33;102117.28;;;14.23;100.00
78373;BME280;67656;52.074;4.758;2023-05-07T20:51:33;102114.13;;;14.06;100.00
78373;BME280;67656;52.074;4.758;2023-05-07T20:56:34;102127.84;;;13.84;100.00
78373;BME280;67656;52.074;4.758;2023-05-07T21:01:34;102130.13;;;13.60;100.00
78373;BME280;67656;52.074;4.758;2023-05-07T21:06:35;102139.59;;;13.72;100.00
78373;BME280;67656;52.074;4.758;2023-05-07T21:11:35;102125.84;;;13.51;100.00
78373;BME280;67656;52.074;4.758;2023-05-07T21:16:35;102131.22;;;13.48;100.00
78373;BME280;67656;52.074;4.758;2023-05-07T21:21:36;102143.78;;;13.37;100.00
78373;BME280;67656;52.074;4.758;2023-05-07T21:26:36;102145.13;;;13.11;100.00
78373;BME280;67656;52.074;4.758;2023-05-07T21:31:36;102143.50;;;13.04;100.00
78373;BME280;67656;52.074;4.758;2023-05-07T21:36:37;102148.19;;;12.86;100.00
78373;BME280;67656;52.074;4.758;2023-05-07T21:41:37;102157.03;;;12.85;100.00
78373;BME280;67656;52.074;4.758;2023-05-07T21:46:37;102148.44;;;12.71;100.00
78373;BME280;67656;52.074;4.758;2023-05-07T21:51:39;102155.47;;;12.73;100.00
78373;BME280;67656;52.074;4.758;2023-05-07T21:56:39;102157.00;;;12.88;100.00
78373;BME280;67656;52.074;4.758;2023-05-07T22:01:39;102152.88;;;12.69;100.00
78373;BME280;67656;52.074;4.758;2023-05-07T22:06:40;102159.50;;;12.41;100.00
78373;BME280;67656;52.074;4.758;2023-05-07T22:11:40;102151.41;;;12.52;100.00
78373;BME280;67656;52.074;4.758;2023-05-07T22:16:41;102159.34;;;12.52;100.00
78373;BME280;67656;52.074;4.758;2023-05-07T22:21:41;102160.34;;;12.43;100.00
78373;BME280;67656;52.074;4.758;2023-05-07T22:26:41;102161.44;;;12.28;100.00
78373;BME280;67656;52.074;4.758;2023-05-07T22:31:42;102151.00;;;12.16;100.00
78373;BME280;67656;52.074;4.758;2023-05-07T22:36:42;102145.63;;;12.22;100.00
78373;BME280;67656;52.074;4.758;2023-05-07T22:41:42;102156.28;;;12.16;100.00
78373;BME280;67656;52.074;4.758;2023-05-07T22:46:43;102143.34;;;11.93;100.00
78373;BME280;67656;52.074;4.758;2023-05-07T22:51:43;102151.22;;;12.01;100.00
78373;BME280;67656;52.074;4.758;2023-05-07T22:56:43;102161.72;;;12.07;100.00
78373;BME280;67656;52.074;4.758;2023-05-07T23:01:45;102158.41;;;11.89;100.00
78373;BME280;67656;52.074;4.758;2023-05-07T23:06:45;102158.34;;;11.92;100.00
78373;BME280;67656;52.074;4.758;2023-05-07T23:11:45;102145.97;;;11.94;100.00
78373;BME280;67656;52.074;4.758;2023-05-07T23:16:46;102150.56;;;11.80;100.00
78373;BME280;67656;52.074;4.758;2023-05-07T23:21:46;102153.16;;;11.83;100.00
78373;BME280;67656;52.074;4.758;2023-05-07T23:26:46;102161.97;;;11.85;100.00
78373;BME280;67656;52.074;4.758;2023-05-07T23:31:47;102160.38;;;11.68;100.00
78373;BME280;67656;52.074;4.758;2023-05-07T23:36:47;102158.69;;;11.63;100.00
78373;BME280;67656;52.074;4.758;2023-05-07T23:41:47;102161.41;;;11.58;100.00
78373;BME280;67656;52.074;4.758;2023-05-07T23:46:48;102163.19;;;11.55;100.00
78373;BME280;67656;52.074;4.758;2023-05-07T23:51:48;102164.19;;;11.44;100.00
78373;BME280;67656;52.074;4.758;2023-05-07T23:56:48;102160.25;;;11.81;100.00
